sensor_id;sensor_type;location;lat;lon;timestamp;pressure;altitude;pressure_sealevel;temperature;humidity
21588;BME280;10956;48.878;13.316;2023-04-23T00:01:46;93637.03;;;10.84;74.61
21588;BME280;10956;48.878;13.316;2023-04-23T00:04:14;93634.84;;;10.91;74.48
21588;BME280;10956;48.878;13.316;2023-04-23T00:06:41;93636.88;;;10.99;73.88
21588;BME280;10956;48.878;13.316;2023-04-23T00:09:07;93635.75;;;11.05;73.56
21588;BME280;10956;48.878;13.316;2023-04-23T00:11:34;93636.97;;;11.13;73.53
21588;BME280;10956;48.878;13.316;2023-04-23T00:13:59;93629.28;;;11.16;73.59
21588;BME280;10956;48.878;13.316;2023-04-23T00:16:25;93635.06;;;11.18;73.47
21588;BME280;10956;48.878;13.316;2023-04-23T00:18:51;93623.44;;;11.19;74.14
21588;BME280;10956;48.878;13.316;2023-04-23T00:21:16;93620.81;;;11.19;75.07
21588;BME280;10956;48.878;13.316;2023-04-23T00:23:42;93620.81;;;11.19;75.20
21588;BME280;10956;48.878;13.316;2023-04-23T00:26:07;93621.31;;;11.21;74.46
21588;BME280;10956;48.878;13.316;2023-04-23T00:28:33;93619.09;;;11.28;73.13
21588;BME280;10956;48.878;13.316;2023-04-23T00:30:58;93618.97;;;11.39;76.53
21588;BME280;10956;48.878;13.316;2023-04-23T00:33:24;93617.41;;;11.38;80.97
21588;BME280;10956;48.878;13.316;2023-04-23T00:35:49;93605.84;;;11.33;81.94
21588;BME280;10956;48.878;13.316;2023-04-23T00:38:14;93607.56;;;11.24;85.68
21588;BME280;10956;48.878;13.316;2023-04-23T00:40:40;93601.72;;;11.27;86.55
21588;BME280;10956;48.878;13.316;2023-04-23T00:43:06;93601.16;;;11.30;87.94
21588;BME280;10956;48.878;13.316;2023-04-23T00:45:32;93603.72;;;11.36;86.38
21588;BME280;10956;48.878;13.316;2023-04-23T00:47:58;93593.16;;;11.36;86.18
21588;BME280;10956;48.878;13.316;2023-04-23T00:50:24;93590.59;;;11.30;87.34
21588;BME280;10956;48.878;13.316;2023-04-23T00:52:49;93595.88;;;11.30;85.18
21588;BME280;10956;48.878;13.316;2023-04-23T00:55:15;93589.03;;;11.29;81.96
21588;BME280;10956;48.878;13.316;2023-04-23T00:57:40;93590.53;;;11.36;80.88
21588;BME280;10956;48.878;13.316;2023-04-23T01:00:07;93596.28;;;11.38;80.69
21588;BME280;10956;48.878;13.316;2023-04-23T01:02:33;93606.84;;;11.38;79.74
21588;BME280;10956;48.878;13.316;2023-04-23T01:05:03;93604.34;;;11.27;83.98
21588;BME280;10956;48.878;13.316;2023-04-23T01:07:31;93603.75;;;11.12;87.49
21588;BME280;10956;48.878;13.316;2023-04-23T01:09:58;93603.88;;;11.02;89.26
21588;BME280;10956;48.878;13.316;2023-04-23T01:12:24;93599.44;;;10.97;90.25
21588;BME280;10956;48.878;13.316;2023-04-23T01:14:49;93604.22;;;10.95;89.26
21588;BME280;10956;48.878;13.316;2023-04-23T01:17:15;93604.00;;;10.91;88.48
21588;BME280;10956;48.878;13.316;2023-04-23T01:19:41;93611.13;;;10.91;88.72
21588;BME280;10956;48.878;13.316;2023-04-23T01:22:11;93611.69;;;10.88;88.60
21588;BME280;10956;48.878;13.316;2023-04-23T01:24:37;93614.31;;;10.88;87.08
21588;BME280;10956;48.878;13.316;2023-04-23T01:27:03;93607.97;;;10.89;85.79
21588;BME280;10956;48.878;13.316;2023-04-23T01:29:29;93610.06;;;10.92;84.38
21588;BME280;10956;48.878;13.316;2023-04-23T01:31:56;93601.88;;;10.93;83.70
21588;BME280;10956;48.878;13.316;2023-04-23T01:34:22;93600.53;;;10.96;83.48
21588;BME280;10956;48.878;13.316;2023-04-23T01:36:47;93600.47;;;11.01;83.23
21588;BME280;10956;48.878;13.316;2023-04-23T01:39:14;93598.31;;;11.03;82.45
21588;BME280;10956;48.878;13.316;2023-04-23T01:41:40;93595.13;;;11.06;85.38
21588;BME280;10956;48.878;13.316;2023-04-23T01:44:05;93592.78;;;11.05;87.73
21588;BME280;10956;48.878;13.316;2023-04-23T01:46:31;93588.84;;;11.02;86.01
21588;BME280;10956;48.878;13.316;2023-04-23T01:48:56;93591.97;;;11.04;87.14
21588;BME280;10956;48.878;13.316;2023-04-23T01:51:22;93593.63;;;11.00;88.37
21588;BME280;10956;48.878;13.316;2023-04-23T01:53:50;93588.97;;;10.92;89.40
21588;BME280;10956;48.878;13.316;2023-04-23T01:56:15;93594.53;;;10.90;91.20
21588;BME280;10956;48.878;13.316;2023-04-23T01:58:43;93591.38;;;10.88;91.53
21588;BME280;10956;48.878;13.316;2023-04-23T02:01:09;93587.97;;;10.88;91.36
21588;BME280;10956;48.878;13.316;2023-04-23T02:03:34;93590.53;;;10.93;90.92
21588;BME280;10956;48.878;13.316;2023-04-23T02:06:00;93583.69;;;10.92;91.23
21588;BME280;10956;48.878;13.316;2023-04-23T02:08:26;93593.78;;;10.85;88.99
21588;BME280;10956;48.878;13.316;2023-04-23T02:10:52;93591.72;;;10.82;88.03
21588;BME280;10956;48.878;13.316;2023-04-23T02:13:17;93590.66;;;10.83;85.50
21588;BME280;10956;48.878;13.316;2023-04-23T02:15:43;93598.56;;;10.83;85.67
21588;BME280;10956;48.878;13.316;2023-04-23T02:18:08;93590.88;;;10.86;85.28
21588;BME280;10956;48.878;13.316;2023-04-23T02:20:35;93585.03;;;10.89;85.18
21588;BME280;10956;48.878;13.316;2023-04-23T02:23:04;93571.59;;;10.91;85.70
21588;BME280;10956;48.878;13.316;2023-04-23T02:25:30;93586.34;;;10.92;85.47
21588;BME280;10956;48.878;13.316;2023-04-23T02:27:56;93588.47;;;10.90;86.54
21588;BME280;10956;48.878;13.316;2023-04-23T02:30:21;93595.81;;;10.93;85.52
21588;BME280;10956;48.878;13.316;2023-04-23T02:32:47;93590.53;;;10.93;86.20
21588;BME280;10956;48.878;13.316;2023-04-23T02:35:12;93591.59;;;10.92;86.50
21588;BME280;10956;48.878;13.316;2023-04-23T02:37:38;93582.63;;;10.93;88.14
21588;BME280;10956;48.878;13.316;2023-04-23T02:40:04;93586.56;;;10.95;88.15
21588;BME280;10956;48.878;13.316;2023-04-23T02:42:33;93586.84;;;10.94;88.16
21588;BME280;10956;48.878;13.316;2023-04-23T02:44:58;93576.28;;;10.94;88.72
21588;BME280;10956;48.878;13.316;2023-04-23T02:47:23;93568.16;;;10.90;91.31
21588;BME280;10956;48.878;13.316;2023-04-23T02:49:49;93575.28;;;10.90;90.84
21588;BME280;10956;48.878;13.316;2023-04-23T02:52:14;93576.84;;;10.91;90.63
21588;BME280;10956;48.878;13.316;2023-04-23T02:54:40;93597.94;;;10.91;89.63
21588;BME280;10956;48.878;13.316;2023-04-23T02:57:05;93590.31;;;10.89;88.72
21588;BME280;10956;48.878;13.316;2023-04-23T02:59:31;93602.44;;;10.90;89.91
21588;BME280;10956;48.878;13.316;2023-04-23T03:01:56;93595.38;;;10.86;91.66
21588;BME280;10956;48.878;13.316;2023-04-23T03:04:22;93598.06;;;10.81;93.32
21588;BME280;10956;48.878;13.316;2023-04-23T03:06:47;93601.75;;;10.80;91.12
21588;BME280;10956;48.878;13.316;2023-04-23T03:09:13;93594.91;;;10.79;89.56
21588;BME280;10956;48.878;13.316;2023-04-23T03:11:38;93592.78;;;10.81;89.14
21588;BME280;10956;48.878;13.316;2023-04-23T03:14:04;93598.06;;;10.81;88.62
21588;BME280;10956;48.878;13.316;2023-04-23T03:16:30;93601.19;;;10.83;88.59
21588;BME280;10956;48.878;13.316;2023-04-23T03:18:57;93604.34;;;10.85;88.43
21588;BME280;10956;48.878;13.316;2023-04-23T03:21:22;93602.22;;;10.87;90.45
21588;BME280;10956;48.878;13.316;2023-04-23T03:23:48;93605.13;;;10.85;91.59
21588;BME280;10956;48.878;13.316;2023-04-23T03:26:13;93603.84;;;10.83;91.79
21588;BME280;10956;48.878;13.316;2023-04-23T03:28:38;93607.03;;;10.80;91.00
21588;BME280;10956;48.878;13.316;2023-04-23T03:31:04;93605.47;;;10.79;91.36
21588;BME280;10956;48.878;13.316;2023-04-23T03:33:29;93604.91;;;10.82;91.27
21588;BME280;10956;48.878;13.316;2023-04-23T03:35:55;93603.06;;;10.82;91.06
21588;BME280;10956;48.878;13.316;2023-04-23T03:38:20;93602.78;;;10.84;89.43
21588;BME280;10956;48.878;13.316;2023-04-23T03:40:46;93603.78;;;10.88;87.23
21588;BME280;10956;48.878;13.316;2023-04-23T03:43:11;93606.34;;;10.93;86.02
21588;BME280;10956;48.878;13.316;2023-04-23T03:45:36;93609.28;;;10.91;90.24
21588;BME280;10956;48.878;13.316;2023-04-23T03:48:02;93610.34;;;10.90;91.54
21588;BME280;10956;48.878;13.316;2023-04-23T03:50:27;93603.06;;;10.82;94.32
21588;BME280;10956;48.878;13.316;2023-04-23T03:52:53;93600.41;;;10.82;95.58
21588;BME280;10956;48.878;13.316;2023-04-23T03:55:19;93601.19;;;10.83;95.23
21588;BME280;10956;48.878;13.316;2023-04-23T03:57:45;93606.69;;;10.86;96.23
21588;BME280;10956;48.878;13.316;2023-04-23T04:00:11;93605.91;;;10.86;94.36
21588;BME280;10956;48.878;13.316;2023-04-23T04:02:37;93609.09;;;10.83;95.33
21588;BME280;10956;48.878;13.316;2023-04-23T04:05:06;93614.16;;;10.79;95.81
21588;BME280;10956;48.878;13.316;2023-04-23T04:07:31;93614.94;;;10.80;95.10
21588;BME280;10956;48.878;13.316;2023-04-23T04:09:57;93611.75;;;10.83;93.03
21588;BME280;10956;48.878;13.316;2023-04-23T04:12:23;93617.00;;;10.83;92.73
21588;BME280;10956;48.878;13.316;2023-04-23T04:14:48;93617.25;;;10.86;90.97
21588;BME280;10956;48.878;13.316;2023-04-23T04:17:14;93616.91;;;10.93;91.10
21588;BME280;10956;48.878;13.316;2023-04-23T04:19:41;93620.03;;;10.95;91.76
21588;BME280;10956;48.878;13.316;2023-04-23T04:22:07;93621.09;;;10.94;91.54
21588;BME280;10956;48.878;13.316;2023-04-23T04:24:33;93629.00;;;10.94;92.54
21588;BME280;10956;48.878;13.316;2023-04-23T04:27:00;93634.28;;;10.94;93.83
21588;BME280;10956;48.878;13.316;2023-04-23T04:29:26;93631.09;;;10.97;94.52
21588;BME280;10956;48.878;13.316;2023-04-23T04:31:54;93632.38;;;10.99;94.15
21588;BME280;10956;48.878;13.316;2023-04-23T04:34:20;93633.66;;;11.02;91.75
21588;BME280;10956;48.878;13.316;2023-04-23T04:36:45;93627.31;;;11.03;92.51
21588;BME280;10956;48.878;13.316;2023-04-23T04:39:12;93637.31;;;11.06;92.36
21588;BME280;10956;48.878;13.316;2023-04-23T04:41:39;93637.75;;;11.13;89.43
21588;BME280;10956;48.878;13.316;2023-04-23T04:44:05;93637.06;;;11.26;86.43
21588;BME280;10956;48.878;13.316;2023-04-23T04:46:32;93634.81;;;11.39;85.11
21588;BME280;10956;48.878;13.316;2023-04-23T04:48:59;93643.66;;;11.48;86.27
21588;BME280;10956;48.878;13.316;2023-04-23T04:51:24;93642.28;;;11.50;91.25
21588;BME280;10956;48.878;13.316;2023-04-23T04:53:51;93636.16;;;11.55;92.94
21588;BME280;10956;48.878;13.316;2023-04-23T04:56:16;93639.25;;;11.62;93.72
21588;BME280;10956;48.878;13.316;2023-04-23T04:58:42;93648.66;;;11.68;91.49
21588;BME280;10956;48.878;13.316;2023-04-23T05:01:07;93645.38;;;11.76;89.99
21588;BME280;10956;48.878;13.316;2023-04-23T05:03:33;93644.75;;;11.84;89.86
21588;BME280;10956;48.878;13.316;2023-04-23T05:05:59;93639.31;;;11.94;89.60
21588;BME280;10956;48.878;13.316;2023-04-23T05:08:25;93655.31;;;12.03;88.91
21588;BME280;10956;48.878;13.316;2023-04-23T05:10:51;93648.09;;;12.09;89.18
21588;BME280;10956;48.878;13.316;2023-04-23T05:13:18;93655.94;;;12.14;89.10
21588;BME280;10956;48.878;13.316;2023-04-23T05:15:44;93657.00;;;12.13;90.04
21588;BME280;10956;48.878;13.316;2023-04-23T05:18:10;93654.56;;;12.16;89.60
21588;BME280;10956;48.878;13.316;2023-04-23T05:20:36;93654.22;;;12.23;88.84
21588;BME280;10956;48.878;13.316;2023-04-23T05:23:02;93657.75;;;12.32;86.54
21588;BME280;10956;48.878;13.316;2023-04-23T05:25:28;93649.75;;;12.37;83.92
21588;BME280;10956;48.878;13.316;2023-04-23T05:27:54;93644.38;;;12.42;83.30
21588;BME280;10956;48.878;13.316;2023-04-23T05:30:20;93650.00;;;12.54;83.75
21588;BME280;10956;48.878;13.316;2023-04-23T05:32:45;93656.25;;;12.58;84.79
21588;BME280;10956;48.878;13.316;2023-04-23T05:35:11;93655.50;;;12.72;81.59
21588;BME280;10956;48.878;13.316;2023-04-23T05:37:36;93658.75;;;12.82;80.38
21588;BME280;10956;48.878;13.316;2023-04-23T05:40:02;93649.84;;;12.92;79.94
21588;BME280;10956;48.878;13.316;2023-04-23T05:42:29;93652.41;;;12.97;79.64
21588;BME280;10956;48.878;13.316;2023-04-23T05:44:54;93650.84;;;12.96;80.02
21588;BME280;10956;48.878;13.316;2023-04-23T05:47:20;93651.81;;;13.00;80.22
21588;BME280;10956;48.878;13.316;2023-04-23T05:49:45;93648.50;;;13.08;79.68
21588;BME280;10956;48.878;13.316;2023-04-23T05:52:11;93653.38;;;13.15;79.17
21588;BME280;10956;48.878;13.316;2023-04-23T05:54:36;93653.81;;;13.22;79.23
21588;BME280;10956;48.878;13.316;2023-04-23T05:57:02;93651.84;;;13.28;78.84
21588;BME280;10956;48.878;13.316;2023-04-23T05:59:28;93654.97;;;13.30;78.88
21588;BME280;10956;48.878;13.316;2023-04-23T06:01:53;93652.81;;;13.32;78.67
21588;BME280;10956;48.878;13.316;2023-04-23T06:04:19;93652.63;;;13.42;79.03
21588;BME280;10956;48.878;13.316;2023-04-23T06:06:45;93653.97;;;13.53;79.91
21588;BME280;10956;48.878;13.316;2023-04-23T06:09:10;93654.84;;;13.62;79.29
21588;BME280;10956;48.878;13.316;2023-04-23T06:11:36;93658.25;;;13.76;77.98
21588;BME280;10956;48.878;13.316;2023-04-23T06:14:02;93661.34;;;13.92;75.92
21588;BME280;10956;48.878;13.316;2023-04-23T06:16:28;93660.69;;;14.09;75.64
21588;BME280;10956;48.878;13.316;2023-04-23T06:18:53;93659.88;;;14.22;76.05
21588;BME280;10956;48.878;13.316;2023-04-23T06:21:23;93658.41;;;14.38;75.67
21588;BME280;10956;48.878;13.316;2023-04-23T06:23:49;93655.44;;;14.53;74.36
21588;BME280;10956;48.878;13.316;2023-04-23T06:26:15;93652.84;;;14.62;73.81
21588;BME280;10956;48.878;13.316;2023-04-23T06:28:41;93658.78;;;14.68;73.45
21588;BME280;10956;48.878;13.316;2023-04-23T06:31:07;93660.22;;;14.74;73.90
21588;BME280;10956;48.878;13.316;2023-04-23T06:33:33;93658.28;;;14.88;74.06
21588;BME280;10956;48.878;13.316;2023-04-23T06:35:58;93653.09;;;14.83;73.12
21588;BME280;10956;48.878;13.316;2023-04-23T06:38:24;93657.78;;;14.86;73.13
21588;BME280;10956;48.878;13.316;2023-04-23T06:40:49;93648.28;;;14.85;73.33
21588;BME280;10956;48.878;13.316;2023-04-23T06:43:15;93656.84;;;14.82;75.94
21588;BME280;10956;48.878;13.316;2023-04-23T06:45:40;93660.56;;;14.81;78.13
21588;BME280;10956;48.878;13.316;2023-04-23T06:48:06;93660.78;;;14.93;78.97
21588;BME280;10956;48.878;13.316;2023-04-23T06:50:31;93651.16;;;15.06;79.29
21588;BME280;10956;48.878;13.316;2023-04-23T06:52:57;93645.28;;;15.17;77.53
21588;BME280;10956;48.878;13.316;2023-04-23T06:55:22;93645.44;;;15.12;76.33
21588;BME280;10956;48.878;13.316;2023-04-23T06:57:51;93632.50;;;15.19;75.72
21588;BME280;10956;48.878;13.316;2023-04-23T07:00:18;93644.88;;;15.33;75.22
21588;BME280;10956;48.878;13.316;2023-04-23T07:02:43;93642.09;;;15.55;73.71
21588;BME280;10956;48.878;13.316;2023-04-23T07:05:09;93646.88;;;15.75;73.14
21588;BME280;10956;48.878;13.316;2023-04-23T07:07:34;93649.06;;;15.91;72.54
21588;BME280;10956;48.878;13.316;2023-04-23T07:10:01;93648.44;;;16.11;72.66
21588;BME280;10956;48.878;13.316;2023-04-23T07:12:28;93644.69;;;16.29;72.34
21588;BME280;10956;48.878;13.316;2023-04-23T07:14:53;93649.53;;;16.36;71.35
21588;BME280;10956;48.878;13.316;2023-04-23T07:17:18;93655.00;;;16.22;70.85
21588;BME280;10956;48.878;13.316;2023-04-23T07:19:44;93647.50;;;16.07;71.40
21588;BME280;10956;48.878;13.316;2023-04-23T07:22:09;93648.75;;;16.01;69.65
21588;BME280;10956;48.878;13.316;2023-04-23T07:24:35;93654.69;;;15.98;69.86
21588;BME280;10956;48.878;13.316;2023-04-23T07:27:00;93667.84;;;16.03;68.64
21588;BME280;10956;48.878;13.316;2023-04-23T07:29:27;93662.34;;;15.99;68.52
21588;BME280;10956;48.878;13.316;2023-04-23T07:31:52;93663.63;;;16.10;67.74
21588;BME280;10956;48.878;13.316;2023-04-23T07:34:17;93670.19;;;16.13;66.62
21588;BME280;10956;48.878;13.316;2023-04-23T07:36:43;93665.34;;;16.15;67.55
21588;BME280;10956;48.878;13.316;2023-04-23T07:39:08;93674.25;;;16.19;67.29
21588;BME280;10956;48.878;13.316;2023-04-23T07:41:34;93675.34;;;16.18;67.95
21588;BME280;10956;48.878;13.316;2023-04-23T07:44:00;93680.03;;;16.12;67.91
21588;BME280;10956;48.878;13.316;2023-04-23T07:46:26;93680.97;;;16.08;68.18
21588;BME280;10956;48.878;13.316;2023-04-23T07:48:51;93682.53;;;16.09;68.08
21588;BME280;10956;48.878;13.316;2023-04-23T07:51:17;93670.16;;;15.96;67.90
21588;BME280;10956;48.878;13.316;2023-04-23T07:53:43;93679.72;;;15.97;68.53
21588;BME280;10956;48.878;13.316;2023-04-23T07:56:08;93673.78;;;16.00;69.35
21588;BME280;10956;48.878;13.316;2023-04-23T07:58:34;93693.94;;;16.09;68.61
21588;BME280;10956;48.878;13.316;2023-04-23T08:01:01;93685.34;;;16.04;68.64
21588;BME280;10956;48.878;13.316;2023-04-23T08:03:27;93687.06;;;16.00;69.16
21588;BME280;10956;48.878;13.316;2023-04-23T08:05:53;93688.00;;;16.21;68.94
21588;BME280;10956;48.878;13.316;2023-04-23T08:08:18;93685.66;;;16.28;68.60
21588;BME280;10956;48.878;13.316;2023-04-23T08:10:44;93700.06;;;16.44;68.05
21588;BME280;10956;48.878;13.316;2023-04-23T08:13:09;93688.16;;;16.51;67.67
21588;BME280;10956;48.878;13.316;2023-04-23T08:15:35;93689.41;;;16.53;67.18
21588;BME280;10956;48.878;13.316;2023-04-23T08:18:02;93693.94;;;16.61;67.94
21588;BME280;10956;48.878;13.316;2023-04-23T08:20:28;93688.78;;;16.65;67.22
21588;BME280;10956;48.878;13.316;2023-04-23T08:22:53;93683.28;;;16.61;66.45
21588;BME280;10956;48.878;13.316;2023-04-23T08:25:20;93688.47;;;16.58;66.88
21588;BME280;10956;48.878;13.316;2023-04-23T08:27:45;93675.31;;;16.53;68.16
21588;BME280;10956;48.878;13.316;2023-04-23T08:30:11;93686.13;;;16.47;68.16
21588;BME280;10956;48.878;13.316;2023-04-23T08:32:38;93678.94;;;16.48;68.20
21588;BME280;10956;48.878;13.316;2023-04-23T08:35:03;93673.28;;;16.50;68.48
21588;BME280;10956;48.878;13.316;2023-04-23T08:37:29;93689.72;;;16.52;68.89
21588;BME280;10956;48.878;13.316;2023-04-23T08:39:54;93683.59;;;16.60;69.04
21588;BME280;10956;48.878;13.316;2023-04-23T08:42:29;93683.91;;;16.58;68.86
21588;BME280;10956;48.878;13.316;2023-04-23T08:45:01;93688.16;;;16.51;68.64
21588;BME280;10956;48.878;13.316;2023-04-23T08:47:28;93684.88;;;16.45;68.81
21588;BME280;10956;48.878;13.316;2023-04-23T08:49:57;93695.34;;;16.59;68.77
21588;BME280;10956;48.878;13.316;2023-04-23T08:52:25;93693.00;;;16.48;68.17
21588;BME280;10956;48.878;13.316;2023-04-23T08:54:58;93705.84;;;16.29;68.74
21588;BME280;10956;48.878;13.316;2023-04-23T08:57:25;93703.91;;;15.87;70.30
21588;BME280;10956;48.878;13.316;2023-04-23T08:59:51;93693.53;;;15.59;71.81
21588;BME280;10956;48.878;13.316;2023-04-23T09:02:17;93706.13;;;15.45;72.81
21588;BME280;10956;48.878;13.316;2023-04-23T09:04:44;93702.47;;;15.32;73.94
21588;BME280;10956;48.878;13.316;2023-04-23T09:07:09;93694.66;;;15.27;76.06
21588;BME280;10956;48.878;13.316;2023-04-23T09:09:38;93688.34;;;15.54;75.06
21588;BME280;10956;48.878;13.316;2023-04-23T09:12:05;93699.38;;;15.78;75.83
21588;BME280;10956;48.878;13.316;2023-04-23T09:14:34;93702.22;;;15.91;74.37
21588;BME280;10956;48.878;13.316;2023-04-23T09:17:01;93694.72;;;16.10;73.66
21588;BME280;10956;48.878;13.316;2023-04-23T09:19:27;93692.69;;;16.15;73.46
21588;BME280;10956;48.878;13.316;2023-04-23T09:21:53;93692.06;;;16.19;73.75
21588;BME280;10956;48.878;13.316;2023-04-23T09:24:22;93687.84;;;16.09;74.08
21588;BME280;10956;48.878;13.316;2023-04-23T09:26:49;93688.16;;;15.99;73.49
21588;BME280;10956;48.878;13.316;2023-04-23T09:29:19;93688.28;;;15.85;73.88
21588;BME280;10956;48.878;13.316;2023-04-23T09:31:46;93681.84;;;15.60;75.58
21588;BME280;10956;48.878;13.316;2023-04-23T09:34:17;93686.91;;;15.48;77.31
21588;BME280;10956;48.878;13.316;2023-04-23T09:36:44;93687.69;;;15.40;78.03
21588;BME280;10956;48.878;13.316;2023-04-23T09:39:13;93687.63;;;15.23;78.06
21588;BME280;10956;48.878;13.316;2023-04-23T09:41:39;93679.31;;;15.15;79.95
21588;BME280;10956;48.878;13.316;2023-04-23T09:44:05;93677.94;;;15.27;79.53
21588;BME280;10956;48.878;13.316;2023-04-23T09:46:32;93675.38;;;15.52;79.10
21588;BME280;10956;48.878;13.316;2023-04-23T09:48:59;93676.09;;;15.84;78.15
21588;BME280;10956;48.878;13.316;2023-04-23T09:51:25;93673.91;;;15.95;78.28
21588;BME280;10956;48.878;13.316;2023-04-23T09:53:52;93672.06;;;16.04;78.62
21588;BME280;10956;48.878;13.316;2023-04-23T09:56:18;93671.59;;;16.19;78.57
21588;BME280;10956;48.878;13.316;2023-04-23T09:58:45;93667.34;;;16.44;78.09
21588;BME280;10956;48.878;13.316;2023-04-23T10:01:10;93668.13;;;16.79;76.85
21588;BME280;10956;48.878;13.316;2023-04-23T10:03:41;93659.56;;;17.11;74.60
21588;BME280;10956;48.878;13.316;2023-04-23T10:06:12;93665.75;;;17.33;73.74
21588;BME280;10956;48.878;13.316;2023-04-23T10:08:37;93657.66;;;17.50;72.60
21588;BME280;10956;48.878;13.316;2023-04-23T10:11:04;93656.28;;;17.44;71.15
21588;BME280;10956;48.878;13.316;2023-04-23T10:13:29;93662.91;;;17.38;70.29
21588;BME280;10956;48.878;13.316;2023-04-23T10:15:55;93661.69;;;17.27;70.65
21588;BME280;10956;48.878;13.316;2023-04-23T10:18:21;93658.06;;;17.31;69.04
21588;BME280;10956;48.878;13.316;2023-04-23T10:20:48;93661.69;;;17.27;67.79
21588;BME280;10956;48.878;13.316;2023-04-23T10:23:16;93659.56;;;17.11;68.76
21588;BME280;10956;48.878;13.316;2023-04-23T10:25:44;93650.13;;;17.23;68.78
21588;BME280;10956;48.878;13.316;2023-04-23T10:28:12;93640.34;;;17.35;68.02
21588;BME280;10956;48.878;13.316;2023-04-23T10:30:41;93642.78;;;17.49;68.27
21588;BME280;10956;48.878;13.316;2023-04-23T10:33:07;93638.47;;;17.65;68.53
21588;BME280;10956;48.878;13.316;2023-04-23T10:35:32;93640.13;;;17.79;68.81
21588;BME280;10956;48.878;13.316;2023-04-23T10:37:59;93629.75;;;17.86;67.22
21588;BME280;10956;48.878;13.316;2023-04-23T10:40:29;93632.47;;;17.98;66.62
21588;BME280;10956;48.878;13.316;2023-04-23T10:42:56;93630.13;;;18.17;66.14
21588;BME280;10956;48.878;13.316;2023-04-23T10:45:22;93634.81;;;18.20;66.61
21588;BME280;10956;48.878;13.316;2023-04-23T10:47:47;93631.44;;;18.11;64.39
21588;BME280;10956;48.878;13.316;2023-04-23T10:50:22;93634.28;;;17.85;65.06
21588;BME280;10956;48.878;13.316;2023-04-23T10:52:49;93623.56;;;17.94;64.91
21588;BME280;10956;48.878;13.316;2023-04-23T10:55:25;93628.97;;;18.06;64.26
21588;BME280;10956;48.878;13.316;2023-04-23T10:58:05;93627.41;;;18.05;64.27
21588;BME280;10956;48.878;13.316;2023-04-23T11:00:49;93627.28;;;18.01;64.73
21588;BME280;10956;48.878;13.316;2023-04-23T11:03:36;93630.28;;;18.00;65.74
21588;BME280;10956;48.878;13.316;2023-04-23T11:06:05;93620.72;;;17.99;65.59
21588;BME280;10956;48.878;13.316;2023-04-23T11:08:31;93618.75;;;17.87;66.06
21588;BME280;10956;48.878;13.316;2023-04-23T11:10:58;93619.00;;;17.73;66.38
21588;BME280;10956;48.878;13.316;2023-04-23T11:13:25;93618.13;;;17.61;66.46
21588;BME280;10956;48.878;13.316;2023-04-23T11:16:13;93607.44;;;17.40;67.81
21588;BME280;10956;48.878;13.316;2023-04-23T11:24:50;93611.78;;;16.77;71.67
21588;BME280;10956;48.878;13.316;2023-04-23T11:27:16;93604.59;;;16.69;71.71
21588;BME280;10956;48.878;13.316;2023-04-23T11:29:43;93600.38;;;16.59;71.11
21588;BME280;10956;48.878;13.316;2023-04-23T11:32:10;93599.28;;;16.52;70.97
21588;BME280;10956;48.878;13.316;2023-04-23T11:34:42;93603.53;;;16.44;71.77
21588;BME280;10956;48.878;13.316;2023-04-23T11:37:12;93597.75;;;16.33;72.67
21588;BME280;10956;48.878;13.316;2023-04-23T11:39:39;93590.59;;;16.25;72.24
21588;BME280;10956;48.878;13.316;2023-04-23T11:42:09;93596.38;;;16.27;72.27
21588;BME280;10956;48.878;13.316;2023-04-23T11:44:37;93589.63;;;16.38;72.41
21588;BME280;10956;48.878;13.316;2023-04-23T11:47:06;93586.81;;;16.43;72.42
21588;BME280;10956;48.878;13.316;2023-04-23T11:49:31;93589.00;;;16.41;74.59
21588;BME280;10956;48.878;13.316;2023-04-23T11:51:58;93584.00;;;16.31;73.44
21588;BME280;10956;48.878;13.316;2023-04-23T11:54:26;93584.81;;;16.14;74.95
21588;BME280;10956;48.878;13.316;2023-04-23T11:56:52;93591.84;;;16.02;76.38
21588;BME280;10956;48.878;13.316;2023-04-23T11:59:19;93588.88;;;15.95;75.36
21588;BME280;10956;48.878;13.316;2023-04-23T12:01:48;93589.69;;;15.87;76.28
21588;BME280;10956;48.878;13.316;2023-04-23T12:04:19;93584.34;;;15.69;76.47
21588;BME280;10956;48.878;13.316;2023-04-23T12:06:47;93586.34;;;15.55;77.08
21588;BME280;10956;48.878;13.316;2023-04-23T12:09:13;93581.81;;;15.47;77.27
21588;BME280;10956;48.878;13.316;2023-04-23T12:11:40;93576.16;;;15.40;77.77
21588;BME280;10956;48.878;13.316;2023-04-23T12:14:07;93578.66;;;15.28;78.11
21588;BME280;10956;48.878;13.316;2023-04-23T12:16:41;93578.31;;;15.21;78.14
21588;BME280;10956;48.878;13.316;2023-04-23T12:19:13;93575.19;;;15.18;78.62
21588;BME280;10956;48.878;13.316;2023-04-23T12:21:49;93569.25;;;15.13;79.81
21588;BME280;10956;48.878;13.316;2023-04-23T12:24:15;93563.44;;;15.02;81.08
21588;BME280;10956;48.878;13.316;2023-04-23T12:26:41;93567.16;;;14.93;81.09
21588;BME280;10956;48.878;13.316;2023-04-23T12:29:12;93565.88;;;14.81;81.65
21588;BME280;10956;48.878;13.316;2023-04-23T12:31:37;93564.44;;;14.75;82.26
21588;BME280;10956;48.878;13.316;2023-04-23T12:34:05;93563.19;;;14.73;83.58
21588;BME280;10956;48.878;13.316;2023-04-23T12:36:31;93553.69;;;14.80;83.35
21588;BME280;10956;48.878;13.316;2023-04-23T12:39:23;93546.72;;;14.93;81.75
21588;BME280;10956;48.878;13.316;2023-04-23T12:41:53;93544.88;;;15.02;82.03
21588;BME280;10956;48.878;13.316;2023-04-23T12:44:19;93547.09;;;15.17;82.36
21588;BME280;10956;48.878;13.316;2023-04-23T12:46:48;93543.06;;;15.37;82.46
21588;BME280;10956;48.878;13.316;2023-04-23T12:49:14;93548.38;;;15.46;81.45
21588;BME280;10956;48.878;13.316;2023-04-23T12:51:39;93542.59;;;15.44;80.77
21588;BME280;10956;48.878;13.316;2023-04-23T12:54:05;93543.38;;;15.53;80.21